Time;durP1;ratioP1;P1;durP2;ratioP2;P2;SDS_P1;SDS_P2;PMS_P1;PMS_P2;Temp;Humidity;BMP_temperature;BMP_pressure;BME280_temperature;BME280_humidity;BME280_pressure;Samples;Min_cycle;Max_cycle;Signal;HPM_P1;HPM_P2
2022/10/03 03:01:05;;;;;;;;;;;7.20;99.90;;;;;;5945206;23;20020;-69
2022/10/03 03:03:42;;;;;;;;;;;7.30;99.90;;;;;;5013100;28;19967;-68
2022/10/03 03:06:16;;;;;;;;;;;7.30;99.90;;;;;;5030007;28;19929;-69
2022/10/03 03:08:53;;;;;;;;;;;7.30;99.90;;;;;;5029958;28;19964;-69
2022/10/03 03:11:34;;;;;;;;;;;7.30;99.90;;;;;;5023874;28;20019;-67
2022/10/03 03:14:10;;;;;;;;;;;7.40;99.90;;;;;;5010031;28;19960;-68
2022/10/03 03:16:42;;;;;;;;;;;7.40;99.90;;;;;;5010384;28;20296;-67
2022/10/03 03:19:16;;;;;;;;;;;7.40;99.90;;;;;;5010528;28;19933;-67
2022/10/03 03:21:49;;;;;;;;;;;7.50;99.90;;;;;;5011253;28;19926;-68
2022/10/03 03:24:32;;;;;;;;;;;7.50;99.90;;;;;;5010959;28;20359;-67
2022/10/03 03:27:04;;;;;;;;;;;7.60;99.90;;;;;;5012162;28;20380;-68
2022/10/03 03:29:38;;;;;;;;;;;7.70;99.90;;;;;;5010983;28;20008;-68
2022/10/03 03:32:10;;;;;;;;;;;7.90;99.90;;;;;;5011834;28;20351;-68
2022/10/03 03:34:43;;;;;;;;;;;7.90;99.90;;;;;;5010986;28;19988;-68
2022/10/03 03:37:11;;;;;;;;;;;8.00;99.90;;;;;;5011156;28;19929;-68
2022/10/03 03:39:46;;;;;;;;;;;8.10;99.90;;;;;;5010805;28;19929;-68
2022/10/03 03:42:22;;;;;;;;;;;8.10;99.90;;;;;;5011758;28;19926;-68
2022/10/03 03:45:07;;;;;;;;;;;8.00;99.90;;;;;;5010520;28;19935;-68
2022/10/03 03:47:43;;;;;;;;;;;8.00;99.90;;;;;;5010748;28;19980;-68
2022/10/03 03:50:30;;;;;;;;;;;7.90;99.90;;;;;;5010590;28;19929;-67
2022/10/03 03:53:05;;;;;;;;;;;7.90;99.90;;;;;;5011905;28;19926;-68
2022/10/03 03:55:40;;;;;;;;;;;7.90;99.90;;;;;;5014654;28;19925;-68
2022/10/03 03:58:13;;;;;;;;;;;8.00;99.90;;;;;;5014556;28;19926;-68
2022/10/03 04:00:55;;;;;;;;;;;8.10;99.90;;;;;;5013843;28;20435;-68
2022/10/03 04:03:30;;;;;;;;;;;8.20;99.90;;;;;;5013987;28;20092;-68
2022/10/03 04:06:11;;;;;;;;;;;8.20;99.90;;;;;;5014212;28;19976;-68
2022/10/03 04:08:59;;;;;;;;;;;8.20;99.90;;;;;;5014476;28;20020;-68
2022/10/03 04:11:32;;;;;;;;;;;8.20;99.90;;;;;;5013351;28;19932;-68
2022/10/03 04:14:10;;;;;;;;;;;8.20;99.90;;;;;;5013283;28;19929;-67
2022/10/03 04:19:32;;;;;;;;;;;8.40;99.90;;;;;;5012742;28;20410;-68
2022/10/03 04:22:14;;;;;;;;;;;8.30;99.90;;;;;;5013204;28;19930;-69
2022/10/03 04:25:00;;;;;;;;;;;8.40;99.90;;;;;;5009655;28;19933;-68
2022/10/03 04:27:36;;;;;;;;;;;8.40;99.90;;;;;;5013014;28;19933;-67
2022/10/03 04:30:08;;;;;;;;;;;8.40;99.90;;;;;;5012270;28;20399;-69
2022/10/03 04:32:56;;;;;;;;;;;8.40;99.90;;;;;;5011967;28;19925;-67
2022/10/03 04:35:28;;;;;;;;;;;8.50;99.90;;;;;;5012478;28;19976;-68
2022/10/03 04:38:00;;;;;;;;;;;8.60;99.90;;;;;;5012537;28;19929;-68
2022/10/03 04:40:33;;;;;;;;;;;8.60;99.90;;;;;;5011759;28;20388;-66
2022/10/03 04:43:04;;;;;;;;;;;8.70;99.90;;;;;;5012443;28;19925;-68
2022/10/03 04:45:38;;;;;;;;;;;8.70;99.90;;;;;;5012423;28;19965;-68
2022/10/03 04:48:09;;;;;;;;;;;8.70;99.90;;;;;;5012497;28;20404;-68
2022/10/03 04:50:39;;;;;;;;;;;8.70;99.90;;;;;;5012213;28;19932;-69
2022/10/03 04:53:19;;;;;;;;;;;8.70;99.90;;;;;;5012281;28;20398;-68
2022/10/03 04:55:48;;;;;;;;;;;8.70;99.90;;;;;;5012449;28;20466;-68
2022/10/03 04:58:19;;;;;;;;;;;8.70;99.90;;;;;;5012141;28;20338;-68
2022/10/03 05:00:54;;;;;;;;;;;8.80;99.90;;;;;;5010624;28;19977;-68
2022/10/03 05:03:27;;;;;;;;;;;8.80;99.90;;;;;;5003903;28;19929;-68
2022/10/03 05:05:57;;;;;;;;;;;8.80;99.90;;;;;;4999494;28;19929;-68
2022/10/03 05:08:33;;;;;;;;;;;8.70;99.90;;;;;;5009522;28;19933;-68
2022/10/03 05:11:18;;;;;;;;;;;8.80;99.90;;;;;;5011761;28;19929;-67
2022/10/03 05:13:53;;;;;;;;;;;8.80;99.90;;;;;;5011576;28;19929;-67
2022/10/03 05:16:23;;;;;;;;;;;8.70;99.90;;;;;;5012397;28;19925;-68
2022/10/03 05:18:53;;;;;;;;;;;8.70;99.90;;;;;;5011620;28;19926;-67
2022/10/03 05:21:24;;;;;;;;;;;8.70;99.90;;;;;;5011896;28;19925;-68
2022/10/03 05:24:01;;;;;;;;;;;8.70;99.90;;;;;;5011599;28;19936;-68
2022/10/03 05:26:35;;;;;;;;;;;8.70;99.90;;;;;;5011805;28;19940;-68
2022/10/03 05:29:04;;;;;;;;;;;8.70;99.90;;;;;;5011619;28;20446;-67
2022/10/03 05:31:37;;;;;;;;;;;8.60;99.90;;;;;;5011658;28;20327;-68
2022/10/03 05:34:12;;;;;;;;;;;8.70;99.90;;;;;;5011710;28;19925;-68
2022/10/03 05:36:52;;;;;;;;;;;8.80;99.90;;;;;;5011823;28;19948;-69
2022/10/03 05:39:28;;;;;;;;;;;8.90;99.90;;;;;;5011720;28;20005;-68
2022/10/03 05:42:00;;;;;;;;;;;8.90;99.90;;;;;;5011659;28;20384;-68
2022/10/03 05:44:38;;;;;;;;;;;8.90;99.90;;;;;;5011517;28;19925;-68
2022/10/03 05:47:43;;;;;;;;;;;8.90;99.90;;;;;;5011385;28;20280;-67
2022/10/03 05:50:10;;;;;;;;;;;8.90;99.90;;;;;;5011159;28;19972;-68
2022/10/03 05:52:49;;;;;;;;;;;8.90;99.90;;;;;;5010934;28;20307;-68
2022/10/03 05:55:28;;;;;;;;;;;8.90;99.90;;;;;;5010839;28;19952;-68
2022/10/03 05:58:16;;;;;;;;;;;8.90;99.90;;;;;;5011803;28;19925;-68
2022/10/03 06:00:56;;;;;;;;;;;8.90;99.90;;;;;;5010979;28;19926;-69
2022/10/03 06:03:41;;;;;;;;;;;8.90;99.90;;;;;;5010777;28;19925;-69
2022/10/03 06:06:13;;;;;;;;;;;8.90;99.90;;;;;;5001401;28;19926;-69
2022/10/03 06:08:59;;;;;;;;;;;8.90;99.90;;;;;;5011031;28;20319;-69
2022/10/03 06:11:45;;;;;;;;;;;8.90;99.90;;;;;;5001241;28;19926;-71
2022/10/03 06:14:24;;;;;;;;;;;8.90;99.90;;;;;;4991408;28;19933;-69
2022/10/03 06:16:55;;;;;;;;;;;8.90;99.90;;;;;;4990770;28;20028;-70
2022/10/03 06:19:30;;;;;;;;;;;9.00;99.90;;;;;;4991056;28;19933;-68
2022/10/03 06:22:16;;;;;;;;;;;9.00;99.90;;;;;;5000720;28;19933;-68
2022/10/03 06:24:58;;;;;;;;;;;9.10;99.90;;;;;;5010474;28;19941;-70
2022/10/03 06:27:43;;;;;;;;;;;9.30;99.90;;;;;;5010603;28;19925;-69
2022/10/03 06:30:20;;;;;;;;;;;9.40;99.90;;;;;;4997315;28;19925;-68
2022/10/03 06:33:03;;;;;;;;;;;9.40;99.90;;;;;;5010182;28;20384;-69
2022/10/03 06:35:49;;;;;;;;;;;9.40;99.90;;;;;;4991102;28;19929;-69
2022/10/03 06:38:25;;;;;;;;;;;9.40;99.90;;;;;;4990934;28;19926;-69
2022/10/03 06:41:10;;;;;;;;;;;9.50;99.90;;;;;;4990750;28;19937;-67
2022/10/03 06:44:03;;;;;;;;;;;9.50;99.90;;;;;;4990376;28;19929;-69
2022/10/03 06:46:40;;;;;;;;;;;9.60;99.90;;;;;;4954760;28;19929;-71
2022/10/03 06:49:30;;;;;;;;;;;9.70;99.90;;;;;;5010267;28;19926;-69
2022/10/03 06:52:07;;;;;;;;;;;9.80;99.90;;;;;;4991222;28;19932;-68
2022/10/03 06:54:46;;;;;;;;;;;9.90;99.90;;;;;;5011204;28;20024;-80
2022/10/03 06:57:20;;;;;;;;;;;10.10;99.90;;;;;;5010589;28;19940;-70
2022/10/03 07:00:00;;;;;;;;;;;10.30;99.90;;;;;;5010196;28;19926;-75
2022/10/03 07:02:41;;;;;;;;;;;10.40;99.90;;;;;;5009691;28;19933;-69
2022/10/03 07:05:35;;;;;;;;;;;10.50;99.90;;;;;;4984012;28;19961;-70
2022/10/03 07:08:24;;;;;;;;;;;10.70;99.90;;;;;;5010132;28;19929;-70
2022/10/03 07:11:05;;;;;;;;;;;10.90;99.90;;;;;;5007273;28;19929;-70
2022/10/03 07:13:49;;;;;;;;;;;11.00;99.90;;;;;;5006792;28;19933;-70
2022/10/03 07:16:30;;;;;;;;;;;11.20;99.90;;;;;;5010480;28;19925;-71
2022/10/03 07:19:10;;;;;;;;;;;11.20;99.90;;;;;;5009840;28;19926;-71
2022/10/03 07:21:46;;;;;;;;;;;11.30;99.90;;;;;;5010394;28;19983;-70
2022/10/03 07:24:26;;;;;;;;;;;11.40;99.90;;;;;;5009936;28;19926;-70
2022/10/03 07:27:07;;;;;;;;;;;11.50;99.90;;;;;;5011322;28;19936;-69
2022/10/03 07:29:51;;;;;;;;;;;11.60;99.90;;;;;;5013989;28;20320;-70
2022/10/03 07:32:30;;;;;;;;;;;11.80;99.90;;;;;;5013849;28;19925;-71
2022/10/03 07:35:17;;;;;;;;;;;12.00;99.90;;;;;;5014596;28;19932;-71
2022/10/03 07:41:02;;;;;;;;;;;12.10;99.90;;;;;;5013596;28;19921;-71
2022/10/03 07:43:37;;;;;;;;;;;12.20;99.90;;;;;;5013427;28;19925;-70
2022/10/03 07:46:29;;;;;;;;;;;12.20;99.90;;;;;;5013316;28;19949;-70
2022/10/03 07:49:17;;;;;;;;;;;12.10;99.90;;;;;;5013310;28;19925;-70
2022/10/03 07:51:51;;;;;;;;;;;11.90;99.90;;;;;;5013587;28;19926;-70
2022/10/03 07:54:30;;;;;;;;;;;11.80;99.90;;;;;;5013383;28;19926;-69
2022/10/03 07:57:15;;;;;;;;;;;11.70;99.90;;;;;;5013530;28;19933;-70
2022/10/03 08:00:04;;;;;;;;;;;11.80;99.90;;;;;;5013103;28;19926;-69
2022/10/03 08:03:02;;;;;;;;;;;11.80;99.90;;;;;;5014421;28;19949;-71
2022/10/03 08:05:45;;;;;;;;;;;11.90;99.90;;;;;;4942865;28;20031;-70
2022/10/03 08:08:30;;;;;;;;;;;12.00;99.90;;;;;;5013469;28;19926;-70
2022/10/03 08:11:08;;;;;;;;;;;12.10;99.90;;;;;;5005961;28;19932;-69
2022/10/03 08:13:40;;;;;;;;;;;12.20;99.90;;;;;;4993373;28;19929;-71
2022/10/03 08:16:15;;;;;;;;;;;12.30;99.90;;;;;;4993901;28;19926;-76
2022/10/03 08:19:00;;;;;;;;;;;12.50;99.90;;;;;;4993600;28;19925;-70
2022/10/03 08:21:34;;;;;;;;;;;12.50;99.90;;;;;;4993419;28;19949;-70
2022/10/03 08:24:16;;;;;;;;;;;12.60;99.90;;;;;;4993359;28;19930;-71
2022/10/03 08:26:54;;;;;;;;;;;12.70;99.90;;;;;;4993487;28;19930;-70
2022/10/03 08:29:32;;;;;;;;;;;12.80;99.90;;;;;;4994611;28;20397;-70
2022/10/03 08:32:14;;;;;;;;;;;13.00;99.90;;;;;;5012277;28;20356;-70
2022/10/03 08:34:56;;;;;;;;;;;13.00;99.90;;;;;;5012873;28;19933;-67
2022/10/03 08:37:49;;;;;;;;;;;13.20;99.90;;;;;;5009717;28;19980;-72
2022/10/03 08:40:35;;;;;;;;;;;13.30;99.90;;;;;;5012017;28;20250;-70
2022/10/03 08:43:30;;;;;;;;;;;13.40;99.90;;;;;;5006483;28;20396;-70
2022/10/03 08:46:07;;;;;;;;;;;13.50;99.90;;;;;;4992928;28;19925;-70
2022/10/03 08:48:49;;;;;;;;;;;13.60;99.90;;;;;;4992768;28;19926;-68
2022/10/03 08:51:29;;;;;;;;;;;13.80;99.90;;;;;;4992931;28;19926;-69
2022/10/03 08:54:04;;;;;;;;;;;13.80;99.90;;;;;;5005032;28;20029;-69
2022/10/03 08:56:42;;;;;;;;;;;13.90;99.90;;;;;;5012172;28;19926;-68
2022/10/03 08:59:46;;;;;;;;;;;14.10;99.90;;;;;;5011857;28;19976;-70
2022/10/03 09:02:28;;;;;;;;;;;14.20;99.90;;;;;;5011959;28;19929;-69
2022/10/03 09:05:13;;;;;;;;;;;14.60;99.90;;;;;;5012123;28;19930;-70
2022/10/03 09:07:48;;;;;;;;;;;14.90;99.90;;;;;;5012463;28;19951;-71
2022/10/03 09:10:31;;;;;;;;;;;15.10;99.90;;;;;;5011667;28;19926;-70
2022/10/03 09:13:16;;;;;;;;;;;15.30;99.90;;;;;;5012093;28;19934;-70
2022/10/03 09:15:57;;;;;;;;;;;15.40;99.90;;;;;;5012370;28;19984;-70
2022/10/03 09:18:45;;;;;;;;;;;15.50;99.90;;;;;;5012475;28;20085;-70
2022/10/03 09:21:25;;;;;;;;;;;15.40;99.90;;;;;;5010859;28;19980;-70
2022/10/03 09:24:05;;;;;;;;;;;15.50;99.90;;;;;;5011222;28;19932;-70
2022/10/03 09:26:56;;;;;;;;;;;15.30;99.90;;;;;;5011422;28;19925;-70
2022/10/03 09:29:29;;;;;;;;;;;15.20;99.90;;;;;;5010883;28;19929;-71
2022/10/03 09:32:15;;;;;;;;;;;15.10;99.90;;;;;;5011458;28;19976;-70
2022/10/03 09:35:00;;;;;;;;;;;15.10;99.90;;;;;;5011284;28;19980;-70
2022/10/03 09:37:38;;;;;;;;;;;15.30;99.90;;;;;;4992365;28;19926;-70
2022/10/03 09:40:16;;;;;;;;;;;15.20;99.90;;;;;;5000387;28;19975;-69
2022/10/03 09:43:01;;;;;;;;;;;15.20;99.90;;;;;;5011602;28;19933;-69
2022/10/03 09:45:49;;;;;;;;;;;15.20;99.90;;;;;;5001778;28;19930;-70
2022/10/03 09:48:34;;;;;;;;;;;15.50;99.90;;;;;;4991634;28;19926;-70
2022/10/03 09:51:08;;;;;;;;;;;15.90;99.90;;;;;;5004344;28;19926;-69
2022/10/03 09:53:53;;;;;;;;;;;16.40;99.90;;;;;;5011544;28;19926;-70
2022/10/03 09:56:47;;;;;;;;;;;16.70;99.90;;;;;;5011394;28;19925;-68
2022/10/03 09:59:22;;;;;;;;;;;16.70;99.90;;;;;;5011111;28;19936;-70
2022/10/03 10:01:51;;;;;;;;;;;16.70;99.90;;;;;;5011086;28;19987;-70
2022/10/03 10:04:29;;;;;;;;;;;16.40;99.90;;;;;;5010998;28;20281;-69
2022/10/03 10:07:17;;;;;;;;;;;16.50;99.90;;;;;;5011039;28;19925;-70
2022/10/03 10:09:55;;;;;;;;;;;16.40;99.90;;;;;;5006364;28;19929;-70
2022/10/03 10:12:36;;;;;;;;;;;16.80;99.90;;;;;;5006932;28;19926;-70
2022/10/03 10:15:27;;;;;;;;;;;16.90;99.90;;;;;;5000084;28;20359;-69
2022/10/03 10:18:15;;;;;;;;;;;16.90;99.90;;;;;;4991174;28;19930;-70
2022/10/03 10:20:53;;;;;;;;;;;16.90;99.90;;;;;;4990452;28;20060;-70
2022/10/03 10:23:35;;;;;;;;;;;16.80;99.90;;;;;;5002567;28;19932;-69
2022/10/03 10:26:09;;;;;;;;;;;16.80;99.90;;;;;;5010715;28;19937;-69
2022/10/03 10:28:59;;;;;;;;;;;17.00;99.90;;;;;;5010643;28;20029;-69
2022/10/03 10:31:45;;;;;;;;;;;17.60;99.90;;;;;;5010431;28;19933;-69
2022/10/03 10:34:25;;;;;;;;;;;23.20;99.90;;;;;;5010061;28;19975;-74
2022/10/03 10:37:11;;;;;;;;;;;26.70;99.90;;;;;;5010637;28;19949;-71
2022/10/03 10:39:48;;;;;;;;;;;29.50;99.90;;;;;;5010078;28;19929;-71
2022/10/03 10:42:30;;;;;;;;;;;27.00;99.90;;;;;;5009895;28;19941;-69
2022/10/03 10:45:20;;;;;;;;;;;24.70;99.90;;;;;;5023598;28;19948;-69
2022/10/03 10:48:17;;;;;;;;;;;22.90;99.90;;;;;;5011935;28;19925;-69
2022/10/03 10:51:11;;;;;;;;;;;25.40;99.90;;;;;;5009596;28;19929;-71
2022/10/03 10:54:05;;;;;;;;;;;26.20;99.90;;;;;;5010561;28;19972;-71
2022/10/03 10:56:56;;;;;;;;;;;25.60;99.90;;;;;;4974819;28;19981;-71
2022/10/03 10:59:49;;;;;;;;;;;23.90;99.90;;;;;;4978612;28;19976;-70
2022/10/03 11:02:34;;;;;;;;;;;22.20;99.90;;;;;;4990968;28;19926;-70
2022/10/03 11:05:21;;;;;;;;;;;21.30;99.90;;;;;;4989951;28;19976;-70
2022/10/03 11:08:06;;;;;;;;;;;21.50;99.90;;;;;;4990844;28;20559;-68
2022/10/03 11:10:35;;;;;;;;;;;21.80;99.90;;;;;;4978055;28;19956;-70
2022/10/03 11:13:28;;;;;;;;;;;23.00;99.90;;;;;;4991042;28;20372;-70
2022/10/03 11:16:13;;;;;;;;;;;22.60;99.90;;;;;;4991808;28;20038;-70
2022/10/03 11:19:01;;;;;;;;;;;26.00;99.90;;;;;;4990883;28;19981;-69
2022/10/03 11:21:49;;;;;;;;;;;26.10;99.90;;;;;;4962383;28;19926;-70
2022/10/03 11:24:34;;;;;;;;;;;28.30;99.90;;;;;;4993220;28;20032;-66
2022/10/03 11:27:27;;;;;;;;;;;30.20;99.90;;;;;;5009882;28;19933;-68
2022/10/03 11:30:11;;;;;;;;;;;31.00;99.90;;;;;;5010885;28;20416;-68
2022/10/03 11:33:11;;;;;;;;;;;33.10;99.90;;;;;;5009941;28;19926;-69
2022/10/03 11:35:56;;;;;;;;;;;34.10;99.90;;;;;;4990227;28;19933;-68
2022/10/03 11:38:24;;;;;;;;;;;36.40;99.90;;;;;;5001305;28;20036;-68
2022/10/03 11:40:57;;;;;;;;;;;35.70;99.90;;;;;;5009735;28;19925;-69
2022/10/03 11:43:42;;;;;;;;;;;35.10;99.90;;;;;;5009410;28;19937;-68
2022/10/03 11:46:20;;;;;;;;;;;30.60;99.90;;;;;;4999291;28;19929;-68
2022/10/03 11:48:51;;;;;;;;;;;27.90;99.90;;;;;;5009833;28;19925;-67
2022/10/03 11:51:22;;;;;;;;;;;25.80;99.90;;;;;;5009913;28;20028;-68
2022/10/03 11:53:52;;;;;;;;;;;28.20;99.90;;;;;;5009874;28;19952;-69
2022/10/03 11:56:22;;;;;;;;;;;30.00;99.90;;;;;;5009798;28;19926;-68
2022/10/03 11:59:04;;;;;;;;;;;27.70;99.90;;;;;;5009484;28;20371;-69
2022/10/03 12:01:39;;;;;;;;;;;25.90;99.90;;;;;;4997152;28;19925;-69
2022/10/03 12:04:10;;;;;;;;;;;24.60;99.90;;;;;;5009027;28;19925;-67
2022/10/03 12:09:34;;;;;;;;;;;23.50;99.90;;;;;;5009513;28;19925;-69
2022/10/03 12:12:04;;;;;;;;;;;23.00;99.90;;;;;;4994427;28;19932;-70
2022/10/03 12:14:34;;;;;;;;;;;24.50;99.90;;;;;;4990671;28;19926;-68
2022/10/03 12:17:05;;;;;;;;;;;25.70;99.90;;;;;;4993569;28;19930;-67
2022/10/03 12:19:36;;;;;;;;;;;27.00;99.90;;;;;;4992394;28;19926;-69
2022/10/03 12:22:06;;;;;;;;;;;28.90;99.90;;;;;;4993223;28;19926;-67
2022/10/03 12:24:34;;;;;;;;;;;31.90;99.90;;;;;;4992887;28;19953;-68
2022/10/03 12:27:05;;;;;;;;;;;29.80;99.90;;;;;;4993290;28;19930;-67
2022/10/03 12:29:33;;;;;;;;;;;27.90;99.90;;;;;;4993191;28;19930;-68
2022/10/03 12:32:15;;;;;;;;;;;26.40;99.90;;;;;;4993261;28;19977;-67
2022/10/03 12:34:44;;;;;;;;;;;25.40;99.90;;;;;;4993352;28;20420;-67
2022/10/03 12:37:24;;;;;;;;;;;24.60;99.90;;;;;;4993543;28;19926;-68
2022/10/03 12:40:00;;;;;;;;;;;23.90;99.90;;;;;;4993177;28;19925;-68
2022/10/03 12:42:31;;;;;;;;;;;25.00;99.90;;;;;;4993006;28;19948;-69
2022/10/03 12:45:00;;;;;;;;;;;29.10;99.90;;;;;;4993249;28;20042;-69
2022/10/03 12:47:31;;;;;;;;;;;30.80;99.90;;;;;;4993387;28;19926;-70
2022/10/03 12:49:59;;;;;;;;;;;29.40;99.90;;;;;;4992796;28;19926;-68
2022/10/03 12:52:28;;;;;;;;;;;27.40;99.90;;;;;;4992849;28;19930;-69
2022/10/03 12:55:01;;;;;;;;;;;27.60;99.90;;;;;;4993146;28;20009;-70
2022/10/03 12:57:39;;;;;;;;;;;27.30;99.90;;;;;;4993046;28;20360;-69
2022/10/03 13:00:07;;;;;;;;;;;26.10;99.90;;;;;;4992522;28;20333;-69
2022/10/03 13:02:38;;;;;;;;;;;25.20;99.90;;;;;;4992404;28;20274;-69
2022/10/03 13:05:24;;;;;;;;;;;25.30;99.90;;;;;;4992618;28;19934;-68
2022/10/03 13:07:52;;;;;;;;;;;24.70;99.90;;;;;;4992616;28;19926;-68
2022/10/03 13:10:30;;;;;;;;;;;24.20;99.90;;;;;;4994094;28;19926;-68
2022/10/03 13:13:03;;;;;;;;;;;23.90;99.90;;;;;;5011839;28;19933;-68
2022/10/03 13:15:39;;;;;;;;;;;24.10;99.90;;;;;;5012048;28;19929;-68
2022/10/03 13:18:12;;;;;;;;;;;24.80;99.90;;;;;;5011560;28;19926;-68
2022/10/03 13:20:41;;;;;;;;;;;26.30;99.90;;;;;;5011698;28;20344;-68
2022/10/03 13:23:11;;;;;;;;;;;27.30;99.90;;;;;;5011711;28;19926;-68
2022/10/03 13:25:40;;;;;;;;;;;27.10;99.90;;;;;;5011674;28;19929;-68
2022/10/03 13:28:11;;;;;;;;;;;26.90;99.90;;;;;;5011577;28;20420;-68
2022/10/03 13:30:45;;;;;;;;;;;26.50;99.90;;;;;;5011657;28;19972;-68
2022/10/03 13:33:16;;;;;;;;;;;26.80;99.90;;;;;;5011634;28;20273;-68
2022/10/03 13:36:01;;;;;;;;;;;26.40;99.90;;;;;;5011910;28;19925;-69
2022/10/03 13:38:46;;;;;;;;;;;25.50;99.90;;;;;;5011655;28;19961;-68
2022/10/03 13:41:20;;;;;;;;;;;24.40;99.90;;;;;;5011609;28;19933;-68
2022/10/03 13:43:49;;;;;;;;;;;23.70;99.90;;;;;;5011358;28;19925;-68
2022/10/03 13:46:18;;;;;;;;;;;23.30;99.90;;;;;;5011683;28;19926;-68
2022/10/03 13:48:49;;;;;;;;;;;23.20;99.90;;;;;;5011417;28;19929;-69
2022/10/03 13:51:21;;;;;;;;;;;23.30;99.90;;;;;;5011756;28;19925;-68
2022/10/03 13:53:53;;;;;;;;;;;23.40;99.90;;;;;;5011502;28;19955;-68
2022/10/03 13:56:26;;;;;;;;;;;23.50;99.90;;;;;;5011744;28;20016;-68
2022/10/03 13:58:55;;;;;;;;;;;23.70;99.90;;;;;;5011437;28;19929;-68
2022/10/03 14:01:40;;;;;;;;;;;23.60;99.90;;;;;;5011142;28;19929;-68
2022/10/03 14:04:20;;;;;;;;;;;23.40;99.90;;;;;;5011203;28;19925;-68
2022/10/03 14:06:51;;;;;;;;;;;23.30;99.90;;;;;;5011405;28;19961;-68
2022/10/03 14:09:35;;;;;;;;;;;24.10;99.90;;;;;;5011204;28;19925;-68
2022/10/03 14:12:06;;;;;;;;;;;25.60;99.90;;;;;;4995501;28;19937;-67
2022/10/03 14:14:43;;;;;;;;;;;27.10;99.90;;;;;;4991578;28;19925;-68
2022/10/03 14:17:13;;;;;;;;;;;27.60;99.90;;;;;;4991557;28;19932;-68
2022/10/03 14:19:45;;;;;;;;;;;27.70;99.90;;;;;;4990921;28;20005;-68
2022/10/03 14:22:18;;;;;;;;;;;27.60;99.90;;;;;;4991317;28;19932;-68
2022/10/03 14:24:54;;;;;;;;;;;27.70;99.90;;;;;;4991225;28;19937;-69
2022/10/03 14:27:33;;;;;;;;;;;27.40;99.90;;;;;;4991201;28;20359;-70
2022/10/03 14:30:04;;;;;;;;;;;27.50;99.90;;;;;;4990791;28;19929;-69
2022/10/03 14:32:34;;;;;;;;;;;28.20;99.90;;;;;;4992079;28;19930;-69
2022/10/03 14:35:05;;;;;;;;;;;28.80;99.90;;;;;;4991197;28;19925;-68
2022/10/03 14:37:38;;;;;;;;;;;28.60;99.90;;;;;;4990860;28;19980;-69
2022/10/03 14:40:17;;;;;;;;;;;28.40;99.90;;;;;;4990900;28;19988;-68
2022/10/03 14:42:57;;;;;;;;;;;28.50;99.90;;;;;;4990660;28;20404;-69
2022/10/03 14:45:28;;;;;;;;;;;28.30;99.90;;;;;;4990716;28;19976;-70
2022/10/03 14:47:57;;;;;;;;;;;27.90;99.90;;;;;;4990849;28;19930;-69
2022/10/03 14:50:28;;;;;;;;;;;27.10;99.90;;;;;;4990628;28;19969;-68
2022/10/03 14:53:01;;;;;;;;;;;26.40;99.90;;;;;;4990566;28;19929;-68
2022/10/03 14:55:32;;;;;;;;;;;25.70;99.90;;;;;;4991062;28;19930;-68
2022/10/03 14:58:01;;;;;;;;;;;25.10;99.90;;;;;;4990875;28;19973;-68
2022/10/03 15:00:37;;;;;;;;;;;24.50;99.90;;;;;;4990382;28;19933;-68
2022/10/03 15:03:20;;;;;;;;;;;24.10;99.90;;;;;;4996818;23;19930;-69
2022/10/03 15:06:02;;;;;;;;;;;24.10;99.90;;;;;;4971242;28;19926;-69
2022/10/03 15:08:32;;;;;;;;;;;24.20;99.90;;;;;;4971006;28;19930;-70
2022/10/03 15:11:00;;;;;;;;;;;23.90;99.90;;;;;;4970878;28;19926;-69
2022/10/03 15:13:27;;;;;;;;;;;23.20;99.90;;;;;;4951669;29;19930;-68
2022/10/03 15:15:55;;;;;;;;;;;23.00;99.90;;;;;;4951511;29;19961;-70
2022/10/03 15:18:23;;;;;;;;;;;22.60;99.90;;;;;;4951326;29;20421;-70
2022/10/03 15:20:51;;;;;;;;;;;22.00;99.90;;;;;;4951509;29;20460;-69
2022/10/03 15:23:21;;;;;;;;;;;21.70;99.90;;;;;;4951342;28;20282;-69
2022/10/03 15:25:51;;;;;;;;;;;21.30;99.90;;;;;;4951671;29;20353;-69
2022/10/03 15:28:20;;;;;;;;;;;21.00;99.90;;;;;;4951702;29;19934;-69
2022/10/03 15:30:49;;;;;;;;;;;20.70;99.90;;;;;;4951333;29;19926;-70
2022/10/03 15:33:18;;;;;;;;;;;20.40;99.90;;;;;;4951064;28;20476;-67
2022/10/03 15:35:46;;;;;;;;;;;20.10;99.90;;;;;;4951518;29;19974;-70
2022/10/03 15:38:14;;;;;;;;;;;19.70;99.90;;;;;;4951457;29;19926;-68
2022/10/03 15:40:48;;;;;;;;;;;19.50;99.90;;;;;;4951652;29;19977;-69
2022/10/03 15:43:26;;;;;;;;;;;19.30;99.90;;;;;;4951359;28;19930;-69
2022/10/03 15:45:53;;;;;;;;;;;19.20;99.90;;;;;;4951680;29;20421;-69
2022/10/03 15:48:21;;;;;;;;;;;19.00;99.90;;;;;;4951579;28;20349;-68
2022/10/03 15:50:50;;;;;;;;;;;18.80;99.90;;;;;;4954800;29;19949;-69
2022/10/03 15:53:20;;;;;;;;;;;18.60;99.90;;;;;;4954997;28;19930;-69
2022/10/03 15:55:50;;;;;;;;;;;18.40;99.90;;;;;;4955227;29;20368;-67
2022/10/03 15:58:19;;;;;;;;;;;18.20;99.90;;;;;;4955205;29;19934;-70
2022/10/03 16:00:52;;;;;;;;;;;18.10;99.90;;;;;;4954940;29;19926;-70
2022/10/03 16:03:22;;;;;;;;;;;17.80;99.90;;;;;;4954687;28;20402;-69
2022/10/03 16:05:55;;;;;;;;;;;17.70;99.90;;;;;;4954801;29;19927;-69
2022/10/03 16:08:23;;;;;;;;;;;17.60;99.90;;;;;;4953999;29;19938;-69
2022/10/03 16:10:58;;;;;;;;;;;17.50;99.90;;;;;;4955404;29;19926;-69
2022/10/03 16:13:29;;;;;;;;;;;17.50;99.90;;;;;;4954801;29;20408;-69
2022/10/03 16:16:09;;;;;;;;;;;17.40;99.90;;;;;;4955034;29;20289;-68
2022/10/03 16:18:54;;;;;;;;;;;17.40;99.90;;;;;;4954655;29;20389;-68
2022/10/03 16:21:32;;;;;;;;;;;17.30;99.90;;;;;;4954725;29;19934;-69
2022/10/03 16:24:01;;;;;;;;;;;17.30;99.90;;;;;;4954383;29;20003;-69
2022/10/03 16:26:31;;;;;;;;;;;17.10;99.90;;;;;;4953953;29;19926;-68
2022/10/03 16:29:02;;;;;;;;;;;17.10;99.90;;;;;;4954209;29;19927;-67
2022/10/03 16:31:30;;;;;;;;;;;17.00;99.90;;;;;;4954776;29;19930;-69
2022/10/03 16:33:59;;;;;;;;;;;17.00;99.90;;;;;;4954321;29;19933;-68
2022/10/03 16:36:26;;;;;;;;;;;17.00;99.90;;;;;;4954058;29;20381;-68
2022/10/03 16:38:54;;;;;;;;;;;16.90;99.90;;;;;;4954166;29;19933;-67
2022/10/03 16:41:23;;;;;;;;;;;16.90;99.90;;;;;;4954245;29;19930;-75
2022/10/03 16:43:58;;;;;;;;;;;16.90;99.90;;;;;;4954090;29;19933;-67
2022/10/03 16:46:26;;;;;;;;;;;16.90;99.90;;;;;;4954435;29;19937;-69
2022/10/03 16:51:40;;;;;;;;;;;16.70;99.90;;;;;;4954002;29;19926;-69
2022/10/03 16:54:11;;;;;;;;;;;16.60;99.90;;;;;;4953629;29;20289;-68
2022/10/03 16:56:41;;;;;;;;;;;16.50;99.90;;;;;;4950959;29;19926;-70
2022/10/03 16:59:13;;;;;;;;;;;16.30;99.90;;;;;;4950507;28;20021;-70
2022/10/03 17:01:42;;;;;;;;;;;16.30;99.90;;;;;;4953540;29;19927;-68
2022/10/03 17:04:20;;;;;;;;;;;16.20;99.90;;;;;;4953569;29;19934;-70
2022/10/03 17:06:48;;;;;;;;;;;16.10;99.90;;;;;;4953845;29;19981;-69
2022/10/03 17:09:18;;;;;;;;;;;16.00;99.90;;;;;;4953241;29;19926;-68
2022/10/03 17:11:49;;;;;;;;;;;16.00;99.90;;;;;;4940417;29;19927;-68
2022/10/03 17:14:18;;;;;;;;;;;15.80;99.90;;;;;;4935003;29;19970;-68
2022/10/03 17:16:48;;;;;;;;;;;15.70;99.90;;;;;;4934722;29;19937;-70
2022/10/03 17:19:18;;;;;;;;;;;15.60;99.90;;;;;;4933961;29;19977;-69
2022/10/03 17:21:51;;;;;;;;;;;15.50;99.90;;;;;;4934780;29;19949;-69
2022/10/03 17:24:22;;;;;;;;;;;15.30;99.90;;;;;;4934975;29;19934;-68
2022/10/03 17:26:51;;;;;;;;;;;15.20;99.90;;;;;;4936077;29;19927;-70
2022/10/03 17:29:22;;;;;;;;;;;15.20;99.90;;;;;;4934813;29;20354;-69
2022/10/03 17:31:54;;;;;;;;;;;15.10;99.90;;;;;;4934999;29;19931;-70
2022/10/03 17:34:22;;;;;;;;;;;15.00;99.90;;;;;;4934592;29;19965;-68
2022/10/03 17:37:04;;;;;;;;;;;14.90;99.90;;;;;;4936198;29;20005;-71
2022/10/03 17:39:36;;;;;;;;;;;14.80;99.90;;;;;;4935586;29;20306;-68
2022/10/03 17:42:09;;;;;;;;;;;14.80;99.90;;;;;;4935144;29;19934;-68
2022/10/03 17:44:39;;;;;;;;;;;14.70;99.90;;;;;;4935312;29;19930;-67
2022/10/03 17:47:10;;;;;;;;;;;14.60;99.90;;;;;;4935898;29;19982;-68
2022/10/03 17:49:43;;;;;;;;;;;14.60;99.90;;;;;;4935538;29;19926;-69
2022/10/03 17:52:15;;;;;;;;;;;14.50;99.90;;;;;;4934637;29;19927;-66
2022/10/03 17:54:44;;;;;;;;;;;14.40;99.90;;;;;;4934681;29;19934;-66
2022/10/03 17:57:14;;;;;;;;;;;14.30;99.90;;;;;;4934682;29;19926;-65
2022/10/03 17:59:45;;;;;;;;;;;14.20;99.90;;;;;;4934665;29;19927;-67
2022/10/03 18:02:16;;;;;;;;;;;14.10;99.90;;;;;;4946603;28;20110;-69
2022/10/03 18:04:45;;;;;;;;;;;14.10;99.90;;;;;;4953784;29;19926;-70
2022/10/03 18:07:18;;;;;;;;;;;14.00;99.90;;;;;;4954192;29;20428;-68
2022/10/03 18:09:47;;;;;;;;;;;13.90;99.90;;;;;;4953374;29;19930;-70
2022/10/03 18:12:18;;;;;;;;;;;13.80;99.90;;;;;;4951298;28;19970;-68
2022/10/03 18:14:54;;;;;;;;;;;13.70;99.90;;;;;;4953654;29;20333;-69
2022/10/03 18:17:27;;;;;;;;;;;13.70;99.90;;;;;;4951162;29;19926;-69
2022/10/03 18:20:04;;;;;;;;;;;13.60;99.90;;;;;;4952529;29;19933;-70
2022/10/03 18:22:33;;;;;;;;;;;13.50;99.90;;;;;;4952599;29;20413;-71
2022/10/03 18:25:56;;;;;;;;;;;13.50;99.90;;;;;;4942718;29;20359;-70
2022/10/03 18:28:06;;;;;;;;;;;13.50;99.90;;;;;;4939235;29;19978;-71